createdAt,value
2023-01-31T00:08:31.315Z,2.43
2023-01-31T00:18:31.351Z,2.59
2023-01-31T00:28:31.671Z,2.54
2023-01-31T00:38:31.718Z,2.42
2023-01-31T00:48:34.516Z,2.53
2023-01-31T00:58:32.169Z,2.48
2023-01-31T01:08:32.666Z,2.43
2023-01-31T01:18:32.587Z,2.30
2023-01-31T01:28:32.885Z,2.30
2023-01-31T01:38:32.981Z,2.53
2023-01-31T01:48:33.050Z,2.71
2023-01-31T01:58:33.278Z,2.41
2023-01-31T02:08:33.627Z,2.35
2023-01-31T02:18:33.652Z,2.31
2023-01-31T02:28:34.012Z,2.21
2023-01-31T02:38:34.040Z,2.06
2023-01-31T02:48:34.369Z,2.02
2023-01-31T02:58:34.443Z,1.99
2023-01-31T03:08:35.660Z,1.93
2023-01-31T03:18:34.697Z,1.50
2023-01-31T03:28:35.003Z,1.44
2023-01-31T03:38:35.083Z,1.41
2023-01-31T03:48:35.194Z,1.41
2023-01-31T03:58:35.226Z,1.27
2023-01-31T04:08:35.450Z,1.33
2023-01-31T04:18:37.779Z,1.20
2023-01-31T04:28:36.710Z,1.12
2023-01-31T04:38:35.747Z,1.08
2023-01-31T04:48:36.585Z,1.11
2023-01-31T04:58:36.769Z,0.98
2023-01-31T05:08:36.541Z,1.00
2023-01-31T05:18:36.422Z,1.15
2023-01-31T05:28:36.725Z,1.12
2023-01-31T05:38:37.090Z,1.06
2023-01-31T05:48:37.088Z,1.15
2023-01-31T05:58:37.205Z,1.09
2023-01-31T06:08:37.375Z,1.06
2023-01-31T06:18:37.393Z,1.14
2023-01-31T06:28:37.722Z,1.16
2023-01-31T06:38:37.768Z,1.02
2023-01-31T06:48:38.096Z,0.79
2023-01-31T06:58:40.393Z,0.62
2023-01-31T07:08:38.265Z,1.04
2023-01-31T07:18:38.524Z,1.15
2023-01-31T07:28:38.837Z,1.29
2023-01-31T07:38:38.868Z,1.26
2023-01-31T07:48:39.211Z,1.34
2023-01-31T07:58:39.249Z,1.60
2023-01-31T08:08:39.582Z,1.81
2023-01-31T08:18:39.620Z,2.16
2023-01-31T08:28:39.950Z,2.46
2023-01-31T08:38:40.049Z,2.92
2023-01-31T08:48:40.255Z,3.39
2023-01-31T08:58:40.292Z,3.65
2023-01-31T09:08:40.580Z,3.96
2023-01-31T09:18:40.632Z,4.59
2023-01-31T09:28:40.962Z,4.86
2023-01-31T09:38:41.006Z,4.97
2023-01-31T09:48:41.321Z,5.33
2023-01-31T09:58:41.357Z,5.49
2023-01-31T10:08:41.687Z,5.64
2023-01-31T10:18:41.724Z,5.99
2023-01-31T10:28:42.069Z,6.27
2023-01-31T10:38:42.101Z,6.15
2023-01-31T10:48:43.605Z,6.73
2023-01-31T10:58:42.542Z,6.31
2023-01-31T11:08:42.784Z,6.98
2023-01-31T11:18:43.036Z,7.60
2023-01-31T11:28:44.301Z,6.54
2023-01-31T11:38:43.363Z,6.51
2023-01-31T11:48:43.660Z,6.73
2023-01-31T11:58:43.751Z,6.84
2023-01-31T12:08:43.808Z,6.61
2023-01-31T12:18:44.046Z,6.59
2023-01-31T12:28:44.383Z,6.69
2023-01-31T12:38:44.473Z,6.74
2023-01-31T12:48:45.708Z,6.67
2023-01-31T12:58:45.180Z,6.81
2023-01-31T13:08:53.896Z,8.26
2023-01-31T13:18:46.125Z,9.51
2023-01-31T13:28:45.404Z,9.51
2023-01-31T13:38:45.448Z,10.08
2023-01-31T13:48:48.162Z,9.91
2023-01-31T13:58:45.802Z,9.38
2023-01-31T14:08:46.028Z,9.33
2023-01-31T14:18:46.356Z,8.43
2023-01-31T14:28:46.401Z,7.85
2023-01-31T14:38:46.622Z,7.61
2023-01-31T14:48:46.867Z,7.30
2023-01-31T14:58:47.105Z,7.03
2023-01-31T15:08:49.517Z,6.88
2023-01-31T15:18:47.568Z,6.98
2023-01-31T15:28:47.817Z,6.73
2023-01-31T15:38:48.145Z,6.44
2023-01-31T15:48:48.308Z,6.54
2023-01-31T15:58:48.545Z,6.64
2023-01-31T16:08:48.881Z,6.70
2023-01-31T16:18:48.976Z,6.44
2023-01-31T16:28:52.318Z,6.56
2023-01-31T16:38:49.355Z,6.22
2023-01-31T16:48:49.302Z,6.00
2023-01-31T16:58:49.561Z,6.11
2023-01-31T17:08:49.790Z,6.08
2023-01-31T17:18:49.808Z,5.74
2023-01-31T17:29:00.951Z,5.90
2023-01-31T17:38:52.911Z,5.65
2023-01-31T17:48:50.522Z,5.43
2023-01-31T17:58:50.787Z,5.28
2023-01-31T18:08:53.212Z,5.33
2023-01-31T18:18:52.360Z,5.17
2023-01-31T18:28:51.541Z,4.91
2023-01-31T18:38:51.619Z,4.75
2023-01-31T18:48:55.211Z,4.77
2023-01-31T18:58:51.760Z,4.96
2023-01-31T19:08:52.399Z,4.84
2023-01-31T19:18:52.236Z,4.78
2023-01-31T19:28:52.819Z,4.54
2023-01-31T19:38:52.994Z,4.59
2023-01-31T19:48:53.222Z,4.42
2023-01-31T19:58:53.427Z,4.26
2023-01-31T20:08:53.720Z,4.16
2023-01-31T20:18:54.483Z,4.24
2023-01-31T20:28:53.901Z,4.23
2023-01-31T20:38:54.050Z,4.18
2023-01-31T20:48:54.256Z,4.26
2023-01-31T20:58:54.334Z,4.15
2023-01-31T21:08:54.596Z,4.15
2023-01-31T21:18:54.409Z,4.00
2023-01-31T21:28:54.613Z,3.73
2023-01-31T21:38:54.664Z,3.52
2023-01-31T21:48:56.923Z,3.57
2023-01-31T21:58:55.168Z,3.65
2023-01-31T22:08:55.564Z,3.55
2023-01-31T22:18:55.486Z,3.47
2023-01-31T22:28:55.812Z,3.48
2023-01-31T22:38:55.890Z,3.47
2023-01-31T22:48:56.190Z,3.48
2023-01-31T22:58:56.234Z,3.50
2023-01-31T23:08:56.605Z,3.45
2023-01-31T23:18:56.657Z,3.35
2023-01-31T23:28:57.023Z,3.31
2023-01-31T23:38:57.191Z,3.20
2023-01-31T23:48:59.301Z,3.02
2023-01-31T23:58:57.353Z,3.00
